Time;durP1;ratioP1;P1;durP2;ratioP2;P2;SDS_P1;SDS_P2;PMS_P1;PMS_P2;Temp;Humidity;BMP_temperature;BMP_pressure;BME280_temperature;BME280_humidity;BME280_pressure;Samples;Min_cycle;Max_cycle;Signal;HPM_P1;HPM_P2
2022/01/20 05:30:33;;;;;;;;;5.50;3.00;;;;;6.75;67.77;102646.75;5053974;27;46743;-72
2022/01/20 05:33:00;;;;;;;;;6.50;3.00;;;;;6.79;67.98;102662.75;5034808;28;45260;-73
2022/01/20 05:35:26;;;;;;;;;11.00;5.00;;;;;6.77;68.10;102667.19;5034770;28;45466;-72
2022/01/20 05:37:52;;;;;;;;;9.50;3.75;;;;;6.72;67.84;102660.94;5034907;28;45990;-72
2022/01/20 05:40:17;;;;;;;;;6.50;3.50;;;;;6.80;67.69;102669.84;5035079;28;45371;-72
2022/01/20 05:42:42;;;;;;;;;6.00;3.00;;;;;6.74;67.85;102667.19;5034873;28;45407;-73
2022/01/20 05:45:08;;;;;;;;;6.75;2.50;;;;;6.68;67.59;102663.63;5035131;28;45775;-72
2022/01/20 05:47:37;;;;;;;;;3.50;3.50;;;;;6.69;67.62;102666.28;5034776;28;45336;-73
2022/01/20 05:50:04;;;;;;;;;6.50;4.75;;;;;6.78;67.81;102686.75;5035173;28;45964;-72
2022/01/20 05:52:29;;;;;;;;;3.00;3.00;;;;;6.77;68.04;102676.97;5036447;28;45225;-71
2022/01/20 05:54:54;;;;;;;;;6.00;5.00;;;;;6.79;67.67;102683.19;5036438;28;45305;-71
2022/01/20 05:57:20;;;;;;;;;6.50;5.25;;;;;6.79;67.83;102688.53;5016927;28;45403;-71
2022/01/20 05:59:45;;;;;;;;;6.25;3.25;;;;;6.75;67.24;102689.38;5034481;28;45284;-70
2022/01/20 06:02:28;;;;;;;;;6.75;3.00;;;;;6.73;67.48;102696.50;5034852;28;45406;-73
2022/01/20 06:04:53;;;;;;;;;7.00;3.75;;;;;6.73;67.94;102692.03;5034866;28;45422;-73
2022/01/20 06:07:20;;;;;;;;;3.00;3.00;;;;;6.76;68.32;102702.72;5034591;28;45321;-73
2022/01/20 06:09:46;;;;;;;;;8.75;4.25;;;;;6.76;67.66;102701.84;5034586;28;46495;-71
2022/01/20 06:12:11;;;;;;;;;5.00;5.00;;;;;6.63;67.68;102674.28;5035069;28;45332;-73
2022/01/20 06:14:36;;;;;;;;;6.50;3.75;;;;;6.75;67.48;102700.06;5034470;28;45719;-71
2022/01/20 06:17:02;;;;;;;;;3.50;2.50;;;;;6.68;67.15;102691.16;5034183;28;46027;-72
2022/01/20 06:19:27;;;;;;;;;7.25;5.00;;;;;6.70;67.32;102702.72;5034518;28;45576;-73
2022/01/20 06:21:53;;;;;;;;;5.75;3.50;;;;;6.65;67.33;102701.81;5034050;28;45308;-71
2022/01/20 06:24:18;;;;;;;;;8.25;5.00;;;;;6.67;67.05;102705.38;5034309;28;45396;-73
2022/01/20 06:26:44;;;;;;;;;7.75;6.75;;;;;6.65;67.23;102707.13;5034446;28;45567;-73
2022/01/20 06:29:09;;;;;;;;;5.00;5.00;;;;;6.64;66.95;102709.81;5015648;28;46609;-72
2022/01/20 06:31:34;;;;;;;;;5.50;3.50;;;;;6.60;67.22;102705.38;5034130;28;45241;-72
2022/01/20 06:34:00;;;;;;;;;4.50;2.50;;;;;6.60;67.14;102708.94;5034341;28;45463;-71
2022/01/20 06:36:25;;;;;;;;;6.50;5.00;;;;;6.59;67.03;102698.25;5034477;28;45325;-73
2022/01/20 06:38:50;;;;;;;;;7.00;4.00;;;;;6.58;67.05;102715.13;5016064;28;47349;-73
2022/01/20 06:41:16;;;;;;;;;5.00;5.00;;;;;6.59;67.25;102715.13;5034261;28;45272;-72
2022/01/20 06:43:41;;;;;;;;;7.00;3.75;;;;;6.54;67.08;102718.69;5034056;28;45431;-72
2022/01/20 06:46:06;;;;;;;;;2.00;2.00;;;;;6.58;67.31;102726.69;5018363;28;45967;-70
2022/01/20 06:48:32;;;;;;;;;3.00;3.00;;;;;6.53;67.18;102722.22;5037451;28;45890;-75
2022/01/20 06:50:57;;;;;;;;;4.75;4.50;;;;;6.53;66.17;102725.78;5037549;28;45249;-77
2022/01/20 06:53:22;;;;;;;;;3.00;3.00;;;;;6.40;66.40;102716.88;5019808;28;45448;-78
2022/01/20 06:55:48;;;;;;;;;6.75;2.75;;;;;6.43;66.55;102734.63;5038392;28;45542;-74
2022/01/20 06:58:13;;;;;;;;;5.75;3.00;;;;;6.35;67.42;102728.41;5039156;28;45259;-71
2022/01/20 07:00:38;;;;;;;;;5.75;2.25;;;;;6.34;66.62;102734.59;5037591;28;45217;-76
2022/01/20 07:03:04;;;;;;;;;4.50;3.00;;;;;6.31;66.50;102745.25;5037325;28;45315;-75
2022/01/20 07:05:29;;;;;;;;;5.75;4.50;;;;;6.27;67.01;102748.78;5037233;28;45920;-75
2022/01/20 07:07:55;;;;;;;;;4.00;3.00;;;;;6.27;66.74;102756.78;5037242;28;46053;-74
2022/01/20 07:10:21;;;;;;;;;6.50;3.50;;;;;6.26;67.14;102763.00;5037280;28;45564;-76
2022/01/20 07:12:48;;;;;;;;;8.00;4.00;;;;;6.29;66.91;102774.56;5019553;28;45527;-78
2022/01/20 07:15:15;;;;;;;;;6.75;3.00;;;;;6.32;66.74;102785.22;5019219;28;45754;-75
2022/01/20 07:17:41;;;;;;;;;7.00;2.00;;;;;6.35;67.04;102785.22;5038217;28;46703;-71
2022/01/20 07:20:08;;;;;;;;;7.00;5.00;;;;;6.30;66.56;102775.41;5036717;28;45377;-76
2022/01/20 07:22:34;;;;;;;;;5.00;3.00;;;;;6.25;66.63;102778.06;5019365;28;45439;-78
2022/01/20 07:24:59;;;;;;;;;4.00;4.00;;;;;6.28;66.93;102796.75;5036943;28;45324;-77
2022/01/20 07:27:24;;;;;;;;;12.25;5.00;;;;;6.18;67.11;102786.94;5037164;28;46430;-76
2022/01/20 07:29:50;;;;;;;;;5.75;3.00;;;;;6.27;66.77;102808.28;5036836;28;45221;-74
2022/01/20 07:32:15;;;;;;;;;7.00;7.00;;;;;6.23;67.01;102792.25;5038024;28;46274;-76
2022/01/20 07:34:41;;;;;;;;;6.50;3.00;;;;;6.22;67.54;102799.38;5036419;28;45415;-73
2022/01/20 07:37:06;;;;;;;;;5.75;4.50;;;;;6.26;67.38;102802.94;5035273;28;45922;-71
2022/01/20 07:39:32;;;;;;;;;5.50;5.00;;;;;6.28;67.73;102807.41;5032030;28;45464;-69
2022/01/20 07:41:58;;;;;;;;;6.75;3.00;;;;;6.22;67.78;102803.78;5031304;28;45382;-71
2022/01/20 07:44:23;;;;;;;;;5.50;4.00;;;;;6.24;67.59;102813.59;5025837;28;45819;-75
2022/01/20 07:46:49;;;;;;;;;7.25;5.00;;;;;6.21;67.95;102812.69;5033790;28;45417;-75
2022/01/20 07:49:15;;;;;;;;;6.00;3.00;;;;;6.15;67.95;102799.31;5032904;28;45900;-73
2022/01/20 07:51:40;;;;;;;;;10.50;6.00;;;;;6.03;68.33;102792.19;5044482;28;45585;-76
2022/01/20 07:54:06;;;;;;;;;5.75;5.75;;;;;6.08;68.17;102806.41;5016210;28;47091;-72
2022/01/20 07:56:31;;;;;;;;;6.25;3.00;;;;;6.07;67.98;102804.63;5027779;28;45876;-72
2022/01/20 07:58:57;;;;;;;;;8.25;5.00;;;;;6.06;68.42;102813.47;5034568;28;45337;-70
2022/01/20 08:01:24;;;;;;;;;7.00;6.00;;;;;6.11;68.39;102811.75;5036325;28;45475;-71
2022/01/20 08:03:51;;;;;;;;;4.50;2.75;;;;;6.13;67.88;102806.41;5035609;28;45491;-71
2022/01/20 08:06:16;;;;;;;;;7.00;7.00;;;;;6.04;68.05;102800.16;5035411;28;46490;-71
2022/01/20 08:08:42;;;;;;;;;12.50;5.00;;;;;6.05;68.44;102811.69;5035833;28;45371;-71
2022/01/20 08:11:07;;;;;;;;;7.00;6.00;;;;;6.12;68.40;102810.88;5036278;28;45332;-70
2022/01/20 08:13:32;;;;;;;;;10.00;7.50;;;;;6.15;67.87;102802.88;5035312;28;45649;-71
2022/01/20 08:15:58;;;;;;;;;7.50;5.50;;;;;6.16;67.72;102810.00;5035683;28;46273;-72
2022/01/20 08:18:23;;;;;;;;;8.75;7.50;;;;;6.12;67.67;102805.56;5035769;28;45370;-71
2022/01/20 08:20:49;;;;;;;;;4.75;3.00;;;;;6.14;68.12;102816.19;5036225;28;45397;-71
2022/01/20 08:23:14;;;;;;;;;10.00;7.75;;;;;6.01;67.61;102799.25;5035657;28;46558;-72
2022/01/20 08:25:39;;;;;;;;;7.00;5.00;;;;;6.15;68.44;102824.19;5035721;28;45434;-72
2022/01/20 08:28:05;;;;;;;;;8.00;6.00;;;;;6.18;68.41;102808.22;5035852;28;45318;-71
2022/01/20 08:30:30;;;;;;;;;8.50;6.00;;;;;6.18;68.77;102810.91;5035700;28;45411;-72
2022/01/20 08:32:56;;;;;;;;;8.50;6.00;;;;;6.28;68.36;102818.06;5035658;28;45273;-72
2022/01/20 08:35:24;;;;;;;;;6.25;6.00;;;;;6.31;68.27;102815.38;5035416;28;46095;-74
2022/01/20 08:37:50;;;;;;;;;6.50;2.75;;;;;6.27;67.60;102810.94;5029623;28;45636;-71
2022/01/20 08:40:22;;;;;;;;;6.75;6.00;;;;;6.27;67.60;102821.59;5028249;28;45477;-72
2022/01/20 08:42:47;;;;;;;;;7.75;6.00;;;;;6.17;68.26;102806.44;5022743;28;45356;-73
2022/01/20 08:45:16;;;;;;;;;9.25;6.00;;;;;6.29;67.95;102834.94;5034960;28;46444;-72
2022/01/20 08:47:43;;;;;;;;;6.75;6.75;;;;;6.24;67.95;102829.56;5035883;28;45601;-71
2022/01/20 08:50:10;;;;;;;;;6.50;5.00;;;;;6.29;67.62;102837.59;5035698;28;45312;-73
2022/01/20 08:52:36;;;;;;;;;7.25;6.00;;;;;6.26;67.76;102837.56;5035064;28;45467;-71
2022/01/20 08:55:02;;;;;;;;;6.25;5.00;;;;;6.33;68.10;102834.94;5035335;28;46016;-72
2022/01/20 08:57:28;;;;;;;;;7.25;5.25;;;;;6.39;68.40;102832.28;5035237;28;45328;-72
2022/01/20 08:59:54;;;;;;;;;6.00;6.00;;;;;6.21;68.07;102783.41;5035349;28;45382;-79
2022/01/20 09:02:20;;;;;;;;;10.25;7.00;;;;;6.50;67.66;102824.34;5035558;28;45329;-72
2022/01/20 09:04:46;;;;;;;;;13.00;5.75;;;;;6.46;68.04;102819.91;5035016;28;46392;-71
2022/01/20 09:07:12;;;;;;;;;11.00;9.25;;;;;6.42;67.90;102826.09;5035414;28;45716;-70
2022/01/20 09:09:42;;;;;;;;;7.50;6.25;;;;;6.36;68.43;102820.75;5034278;28;45541;-72
2022/01/20 09:17:26;;;;;;;;;10.25;6.50;;;;;6.54;68.08;102839.50;5035422;28;45332;-70
2022/01/20 09:19:53;;;;;;;;;10.75;6.00;;;;;6.59;68.25;102837.72;5035110;28;45483;-70
2022/01/20 09:22:19;;;;;;;;;10.00;7.50;;;;;6.62;68.14;102843.06;5035235;28;45281;-70
2022/01/20 09:24:45;;;;;;;;;10.75;7.00;;;;;6.61;68.44;102849.28;5035107;28;45307;-70
2022/01/20 09:27:12;;;;;;;;;11.50;7.00;;;;;6.64;67.95;102848.38;5017508;28;45508;-71
2022/01/20 09:29:38;;;;;;;;;11.00;10.75;;;;;6.65;68.23;102859.06;5017556;28;45457;-70
2022/01/20 09:32:06;;;;;;;;;12.75;8.00;;;;;6.73;68.27;102875.06;5035138;28;45449;-70
2022/01/20 09:34:32;;;;;;;;;6.25;5.00;;;;;6.75;68.03;102879.53;5035255;28;47210;-70
2022/01/20 09:36:57;;;;;;;;;8.00;6.25;;;;;6.74;68.02;102868.88;5035206;28;45296;-71
2022/01/20 09:39:23;;;;;;;;;11.25;8.00;;;;;6.87;68.29;102883.16;5035284;28;45460;-70
2022/01/20 09:41:57;;;;;;;;;10.50;8.00;;;;;6.82;67.70;102852.00;5044058;28;45326;-69
2022/01/20 09:44:23;;;;;;;;;10.25;8.00;;;;;7.03;67.87;102877.88;5018386;28;48390;-69
2022/01/20 09:46:50;;;;;;;;;13.00;10.75;;;;;7.09;67.33;102877.88;5035654;28;45321;-70
2022/01/20 09:49:19;;;;;;;;;13.00;7.00;;;;;7.17;67.90;102872.56;5018972;28;45607;-70
2022/01/20 09:51:45;;;;;;;;;11.75;6.75;;;;;7.22;68.00;102860.13;5036227;28;45534;-70
2022/01/20 09:54:11;;;;;;;;;15.75;8.00;;;;;7.36;67.39;102865.47;5035259;28;46196;-70
2022/01/20 09:56:38;;;;;;;;;8.75;6.75;;;;;7.43;67.12;102864.59;5034723;28;45332;-68
2022/01/20 09:59:04;;;;;;;;;11.00;8.00;;;;;7.51;66.80;102857.47;5018181;28;45534;-70
2022/01/20 10:01:38;;;;;;;;;12.50;8.00;;;;;7.59;67.18;102874.38;5015596;28;45946;-72
2022/01/20 10:04:04;;;;;;;;;8.00;6.50;;;;;7.63;66.53;102870.84;5034058;28;45780;-71
2022/01/20 10:06:30;;;;;;;;;14.50;7.50;;;;;7.75;66.90;102870.81;5035348;28;45453;-72
2022/01/20 10:09:00;;;;;;;;;12.75;11.00;;;;;7.79;66.73;102867.28;5034535;28;45508;-73
2022/01/20 10:11:28;;;;;;;;;7.75;7.75;;;;;7.83;65.97;102858.34;5034211;28;45551;-72
2022/01/20 10:13:56;;;;;;;;;9.00;7.25;;;;;7.91;65.75;102882.41;5034086;28;45425;-70
2022/01/20 10:16:22;;;;;;;;;9.75;8.25;;;;;7.96;66.05;102881.50;5034069;28;45356;-71
2022/01/20 10:18:59;;;;;;;;;11.25;11.00;;;;;7.96;66.11;102883.28;5034494;28;45372;-70
2022/01/20 10:21:34;;;;;;;;;17.00;11.00;;;;;8.01;65.96;102902.84;5033657;28;45306;-70
2022/01/20 10:24:18;;;;;;;;;8.50;8.50;;;;;8.07;65.95;102905.53;5015795;28;48217;-71
2022/01/20 10:26:44;;;;;;;;;12.75;8.75;;;;;8.09;65.32;102903.72;5022523;28;45392;-70
2022/01/20 10:29:15;;;;;;;;;12.50;10.25;;;;;8.20;65.12;102920.66;5033909;28;45359;-72
2022/01/20 10:31:46;;;;;;;;;7.75;3.00;;;;;8.23;65.12;102917.97;5034075;28;45438;-72
2022/01/20 10:34:30;;;;;;;;;15.50;9.25;;;;;8.25;64.93;102920.66;5033532;28;47279;-70
2022/01/20 10:36:59;;;;;;;;;9.25;7.50;;;;;8.23;64.75;102915.31;5035287;28;45386;-79
2022/01/20 10:39:38;;;;;;;;;17.50;11.25;;;;;8.20;65.23;102919.75;5031455;28;45567;-71
2022/01/20 10:42:07;;;;;;;;;12.50;9.75;;;;;8.19;65.88;102916.19;5032184;28;45493;-72
2022/01/20 10:44:43;;;;;;;;;10.50;8.00;;;;;8.21;65.43;102916.19;5033351;28;46573;-76
2022/01/20 10:47:21;;;;;;;;;16.00;10.50;;;;;8.34;65.17;102926.00;5029376;28;46275;-71
2022/01/20 10:49:47;;;;;;;;;13.00;11.00;;;;;8.46;65.24;102930.44;5036649;28;45537;-73
2022/01/20 10:52:18;;;;;;;;;13.50;9.50;;;;;8.54;64.96;102929.53;5028184;28;45406;-71
2022/01/20 10:54:52;;;;;;;;;15.25;10.75;;;;;8.65;64.40;102921.47;5033670;28;46057;-72
2022/01/20 10:57:26;;;;;;;;;17.00;11.25;;;;;8.69;64.29;102918.78;5033362;28;45406;-74
2022/01/20 10:59:55;;;;;;;;;11.25;10.75;;;;;8.76;64.15;102919.66;5015364;28;45530;-73
2022/01/20 11:02:25;;;;;;;;;17.25;14.25;;;;;8.81;63.57;102904.47;5033289;28;45394;-71
2022/01/20 11:04:51;;;;;;;;;13.00;9.50;;;;;8.86;63.70;102904.44;5032801;28;46360;-76
2022/01/20 11:07:16;;;;;;;;;14.25;9.75;;;;;8.99;63.01;102909.75;5033048;28;45250;-74
2022/01/20 11:09:44;;;;;;;;;17.50;9.25;;;;;9.09;62.61;102908.81;5033555;28;45270;-72
2022/01/20 11:12:15;;;;;;;;;9.50;8.75;;;;;9.12;62.14;102902.53;5033379;28;45361;-75
2022/01/20 11:14:43;;;;;;;;;13.00;10.75;;;;;9.19;62.66;102909.63;5032953;28;45382;-75
2022/01/20 11:17:16;;;;;;;;;14.25;13.50;;;;;9.26;62.02;102902.47;5033440;28;45336;-75
2022/01/20 11:19:42;;;;;;;;;15.50;15.25;;;;;9.38;61.76;102903.28;5033109;28;45443;-79
2022/01/20 11:22:11;;;;;;;;;12.50;8.75;;;;;9.54;62.12;102909.41;5034796;28;45591;-78
2022/01/20 11:24:37;;;;;;;;;11.75;11.00;;;;;9.70;61.43;102910.19;5034868;28;46671;-77
2022/01/20 11:27:05;;;;;;;;;18.50;14.25;;;;;9.86;60.68;102890.44;5033311;28;45374;-76
2022/01/20 11:30:01;;;;;;;;;20.75;12.75;;;;;10.43;60.00;102902.41;5032989;28;45411;-73
2022/01/20 11:32:29;;;;;;;;;11.75;9.75;;;;;11.30;58.03;102882.50;5037306;28;45418;-70
2022/01/20 11:35:01;;;;;;;;;13.50;9.75;;;;;12.52;55.27;102895.59;5036491;28;45717;-72
2022/01/20 11:37:34;;;;;;;;;10.00;10.00;;;;;13.61;51.17;102878.84;5018287;28;45427;-72
2022/01/20 11:40:16;;;;;;;;;8.00;8.00;;;;;14.30;49.44;102877.06;5036779;28;45424;-72
2022/01/20 11:42:43;;;;;;;;;12.75;10.25;;;;;14.48;48.68;102867.59;5036272;28;45517;-72
2022/01/20 11:45:23;;;;;;;;;10.75;7.75;;;;;14.53;48.45;102880.06;5036230;28;45339;-69
2022/01/20 11:47:48;;;;;;;;;12.50;8.25;;;;;14.52;48.46;102877.38;5018291;28;45400;-73
2022/01/20 11:50:18;;;;;;;;;7.75;7.75;;;;;14.54;47.55;102887.22;5036740;28;45352;-71
2022/01/20 11:52:44;;;;;;;;;17.50;9.00;;;;;14.36;47.61;102885.00;5036448;28;45351;-70
2022/01/20 11:55:11;;;;;;;;;8.25;8.25;;;;;14.13;48.21;102888.31;5036473;28;46540;-74
2022/01/20 11:57:37;;;;;;;;;12.00;10.00;;;;;13.96;48.83;102894.13;5036191;28;45348;-70
2022/01/20 12:00:17;;;;;;;;;9.00;7.50;;;;;13.71;48.71;102890.28;5036070;28;45439;-69
2022/01/20 12:02:42;;;;;;;;;16.00;10.25;;;;;13.59;49.80;102882.53;5036359;28;45380;-71
2022/01/20 12:05:18;;;;;;;;;10.50;6.50;;;;;13.72;50.74;102883.09;5017887;28;48197;-72
2022/01/20 12:07:44;;;;;;;;;15.25;14.25;;;;;13.76;48.99;102882.09;5035919;28;45386;-71
2022/01/20 12:10:24;;;;;;;;;10.50;9.50;;;;;13.64;49.34;102894.94;5036248;28;45415;-71
2022/01/20 12:12:49;;;;;;;;;10.50;8.50;;;;;13.44;49.00;102886.44;5036348;28;45447;-71
2022/01/20 12:15:15;;;;;;;;;6.50;5.00;;;;;13.22;49.71;102894.16;5031205;28;46261;-72
2022/01/20 12:17:55;;;;;;;;;8.75;7.75;;;;;12.92;49.59;102894.81;5054287;28;45449;-71
2022/01/20 12:20:22;;;;;;;;;8.00;4.75;;;;;12.62;50.57;102901.69;5036037;28;45359;-70
2022/01/20 12:22:48;;;;;;;;;5.75;3.50;;;;;12.23;49.71;102889.91;5035526;28;45340;-70
2022/01/20 12:25:20;;;;;;;;;5.25;4.25;;;;;11.99;50.50;102893.06;5035132;28;46544;-70
2022/01/20 12:27:47;;;;;;;;;2.50;2.50;;;;;11.75;50.46;102894.34;5035677;28;45366;-71
2022/01/20 12:30:22;;;;;;;;;4.75;4.00;;;;;11.52;51.15;102899.16;5035418;28;45363;-72
2022/01/20 12:33:06;;;;;;;;;2.75;2.00;;;;;11.41;52.13;102888.56;5034834;28;45356;-70
2022/01/20 12:35:54;;;;;;;;;4.75;4.75;;;;;11.33;51.29;102891.38;5036079;28;45371;-70
2022/01/20 12:38:30;;;;;;;;;2.25;2.00;;;;;11.22;50.77;102887.97;5035748;28;45313;-69
2022/01/20 12:41:11;;;;;;;;;7.25;3.00;;;;;11.21;51.67;102902.31;5035782;28;45332;-70
2022/01/20 12:43:57;;;;;;;;;3.50;2.00;;;;;11.11;51.52;102884.56;5034988;28;45308;-72
2022/01/20 12:46:23;;;;;;;;;2.75;2.25;;;;;11.13;51.42;102900.63;5035511;28;45329;-72
2022/01/20 12:48:54;;;;;;;;;4.00;2.00;;;;;11.06;51.35;102878.34;5035226;28;45557;-72
2022/01/20 12:51:30;;;;;;;;;4.00;2.00;;;;;11.06;51.63;102885.53;5035714;28;45413;-71
2022/01/20 12:54:05;;;;;;;;;7.00;4.50;;;;;10.93;51.70;102888.38;5016990;28;46234;-70
2022/01/20 12:56:34;;;;;;;;;2.50;2.50;;;;;10.75;51.72;102903.81;5034831;28;45720;-70
2022/01/20 12:59:01;;;;;;;;;2.00;1.00;;;;;10.60;52.20;102912.94;5035260;28;45514;-70
2022/01/20 13:01:44;;;;;;;;;3.75;2.75;;;;;10.42;52.66;102891.69;5017553;28;45402;-70
2022/01/20 13:04:14;;;;;;;;;6.75;4.75;;;;;10.39;53.03;102899.75;5017743;28;45475;-70
2022/01/20 13:06:46;;;;;;;;;5.00;3.25;;;;;10.32;52.70;102903.41;5035228;28;46378;-70
2022/01/20 13:09:13;;;;;;;;;4.00;2.00;;;;;10.15;53.00;102891.03;5035537;28;45552;-71
2022/01/20 13:11:57;;;;;;;;;2.75;2.00;;;;;10.18;53.08;102896.41;5035587;28;45394;-71
2022/01/20 13:14:36;;;;;;;;;3.75;2.00;;;;;10.18;53.71;102895.50;5035131;28;45387;-72
2022/01/20 13:17:03;;;;;;;;;2.00;2.00;;;;;10.20;53.19;102889.25;5017713;28;45859;-71
2022/01/20 13:19:47;;;;;;;;;3.75;2.00;;;;;10.19;53.31;102882.09;5034848;28;45407;-70
2022/01/20 13:22:40;;;;;;;;;2.50;2.00;;;;;10.26;52.81;102899.00;5035186;28;45399;-72
2022/01/20 13:25:11;;;;;;;;;4.25;2.00;;;;;10.28;52.39;102889.16;5034692;28;45492;-70
2022/01/20 13:27:49;;;;;;;;;1.25;0.25;;;;;10.31;52.30;102883.75;5034650;28;45443;-71
2022/01/20 13:30:36;;;;;;;;;4.00;1.00;;;;;10.38;51.97;102873.88;5035158;28;45395;-70
2022/01/20 13:33:03;;;;;;;;;1.50;1.50;;;;;10.32;51.62;102855.13;5035201;28;45514;-71
2022/01/20 13:35:38;;;;;;;;;5.50;2.50;;;;;10.46;52.10;102867.47;5034952;28;45470;-71
2022/01/20 13:38:05;;;;;;;;;3.75;1.00;;;;;10.43;51.38;102851.44;5035349;28;45493;-70
2022/01/20 13:40:31;;;;;;;;;0.75;0.00;;;;;10.58;50.57;102861.97;5035327;28;45269;-71
2022/01/20 13:45:59;;;;;;;;;3.00;3.00;;;;;10.79;50.60;102862.63;5034705;28;45362;-71
2022/01/20 13:48:27;;;;;;;;;5.25;2.50;;;;;10.83;49.96;102867.03;5035100;28;45344;-71
2022/01/20 13:50:57;;;;;;;;;2.00;1.75;;;;;10.89;50.30;102861.56;5034732;28;45417;-70
2022/01/20 13:53:27;;;;;;;;;2.00;2.00;;;;;10.93;49.14;102853.47;5034378;28;45501;-71
2022/01/20 13:55:56;;;;;;;;;2.25;2.25;;;;;10.90;49.42;102840.09;5034341;28;45274;-72
2022/01/20 13:58:24;;;;;;;;;1.75;1.75;;;;;11.02;48.37;102849.78;5034690;28;46664;-70
2022/01/20 14:00:50;;;;;;;;;1.25;1.25;;;;;10.97;48.09;102839.09;5035544;28;45447;-72
2022/01/20 14:03:15;;;;;;;;;2.25;1.75;;;;;11.02;48.97;102849.78;5016473;28;45427;-70
2022/01/20 14:05:41;;;;;;;;;6.25;2.00;;;;;10.81;49.17;102816.06;5017084;28;45415;-70
2022/01/20 14:08:07;;;;;;;;;4.50;2.00;;;;;10.96;48.10;102842.72;5034048;28;45519;-71
2022/01/20 14:10:33;;;;;;;;;2.50;2.00;;;;;10.92;48.24;102854.38;5034342;28;45426;-71
2022/01/20 14:12:59;;;;;;;;;1.25;1.25;;;;;10.87;48.75;102845.53;5034478;28;45292;-71
2022/01/20 14:15:25;;;;;;;;;2.75;2.25;;;;;10.84;49.14;102841.97;5033930;28;45645;-72
2022/01/20 14:17:54;;;;;;;;;2.00;1.00;;;;;10.80;49.78;102848.31;5032812;28;46596;-70
2022/01/20 14:20:23;;;;;;;;;2.75;1.00;;;;;10.80;49.47;102857.22;5034396;28;45453;-69
2022/01/20 14:22:49;;;;;;;;;1.50;1.25;;;;;10.76;48.71;102857.28;5034286;28;45552;-71
2022/01/20 14:25:15;;;;;;;;;2.50;1.75;;;;;10.71;48.84;102860.06;5045850;28;45539;-72
2022/01/20 14:27:40;;;;;;;;;1.00;1.00;;;;;10.84;49.08;102853.59;5033883;28;45593;-71
2022/01/20 14:30:08;;;;;;;;;3.75;2.00;;;;;11.11;48.84;102854.13;5033856;28;45398;-70
2022/01/20 14:32:33;;;;;;;;;1.75;1.00;;;;;11.47;47.82;102861.63;5033684;28;45509;-70
2022/01/20 14:34:59;;;;;;;;;2.00;2.00;;;;;11.66;47.58;102859.50;5034230;28;45378;-70
2022/01/20 14:37:24;;;;;;;;;2.00;2.00;;;;;11.88;47.31;102870.84;5032262;28;46127;-70
2022/01/20 14:39:50;;;;;;;;;2.50;2.00;;;;;11.90;46.36;102867.22;5022090;28;45423;-72
2022/01/20 14:42:16;;;;;;;;;3.00;1.00;;;;;11.85;45.86;102870.88;5034230;28;45335;-70
2022/01/20 14:44:43;;;;;;;;;1.00;1.00;;;;;11.67;45.74;102859.50;5033829;28;45203;-69
2022/01/20 14:47:09;;;;;;;;;2.00;1.00;;;;;11.58;46.32;102866.81;5002160;28;47200;-70
2022/01/20 14:49:36;;;;;;;;;1.75;1.75;;;;;11.21;45.70;102840.56;5015511;28;45621;-71
2022/01/20 14:52:03;;;;;;;;;5.00;2.00;;;;;11.17;46.23;102868.34;5033769;28;45391;-70
2022/01/20 14:54:29;;;;;;;;;1.25;0.00;;;;;11.04;47.09;102871.25;5034328;28;45414;-70
2022/01/20 14:56:55;;;;;;;;;5.00;2.00;;;;;10.78;47.82;102853.69;5033626;28;46348;-70
2022/01/20 14:59:21;;;;;;;;;2.75;1.75;;;;;10.80;47.89;102872.47;5033781;28;45292;-69
2022/01/20 15:01:46;;;;;;;;;1.00;1.00;;;;;10.69;48.00;102885.09;5033757;28;45368;-70
2022/01/20 15:04:12;;;;;;;;;4.00;2.75;;;;;10.58;49.40;102890.59;5033436;28;46865;-70
2022/01/20 15:06:38;;;;;;;;;3.00;2.00;;;;;10.46;50.96;102896.13;5034378;28;46091;-69
2022/01/20 15:09:04;;;;;;;;;3.00;1.00;;;;;10.31;51.26;102890.91;5036834;28;45423;-70
2022/01/20 15:11:31;;;;;;;;;4.50;2.00;;;;;10.18;52.16;102883.00;5036867;28;45360;-70
2022/01/20 15:13:58;;;;;;;;;4.50;2.00;;;;;10.00;52.97;102872.44;5037480;28;45343;-67
2022/01/20 15:16:26;;;;;;;;;2.75;1.25;;;;;9.91;52.54;102875.19;5036952;28;45359;-71
2022/01/20 15:18:52;;;;;;;;;3.25;2.00;;;;;9.86;53.01;102883.28;5037382;28;45520;-69
2022/01/20 15:21:17;;;;;;;;;3.00;3.00;;;;;9.83;53.24;102888.66;5019190;28;45588;-70
2022/01/20 15:23:43;;;;;;;;;4.75;2.00;;;;;9.78;53.48;102894.97;5036266;28;45451;-70
2022/01/20 15:26:09;;;;;;;;;2.25;1.75;;;;;9.69;53.46;102898.59;5036654;28;45870;-70
2022/01/20 15:28:35;;;;;;;;;3.25;1.00;;;;;9.62;53.44;102901.31;5036245;28;45560;-70
2022/01/20 15:31:01;;;;;;;;;1.25;1.25;;;;;9.47;53.41;102899.66;5036875;28;45458;-69
2022/01/20 15:33:27;;;;;;;;;2.75;1.50;;;;;9.39;53.57;102901.47;5035814;28;45435;-69
2022/01/20 15:35:54;;;;;;;;;3.00;3.00;;;;;9.38;53.44;102913.09;5036661;28;45364;-70
2022/01/20 15:38:21;;;;;;;;;2.00;2.00;;;;;9.27;54.75;102905.13;5036217;28;45491;-69
2022/01/20 15:40:47;;;;;;;;;2.25;2.00;;;;;9.24;54.75;102915.88;5036360;28;45455;-68
2022/01/20 15:43:12;;;;;;;;;2.75;2.00;;;;;9.17;55.17;102921.25;5036703;28;45467;-70
2022/01/20 15:45:37;;;;;;;;;2.00;2.00;;;;;9.10;55.43;102918.59;5036093;28;46285;-71
2022/01/20 15:48:04;;;;;;;;;2.50;2.00;;;;;9.05;56.04;102915.06;5036661;28;45409;-71
2022/01/20 15:50:32;;;;;;;;;6.75;1.50;;;;;8.93;56.21;102901.72;5036605;28;45399;-73
2022/01/20 15:53:04;;;;;;;;;2.00;1.25;;;;;8.95;56.16;102921.34;5018347;28;47034;-75
2022/01/20 15:55:30;;;;;;;;;2.50;2.50;;;;;8.83;56.48;102910.72;5017890;28;47270;-71
2022/01/20 15:57:56;;;;;;;;;9.25;2.25;;;;;8.89;56.49;102928.53;5036666;28;45436;-71
2022/01/20 16:00:21;;;;;;;;;1.50;0.50;;;;;8.87;56.31;102914.25;5036360;28;45506;-71
2022/01/20 16:02:47;;;;;;;;;2.75;1.00;;;;;8.82;56.49;102927.66;5036210;28;45374;-69
2022/01/20 16:05:12;;;;;;;;;1.50;1.25;;;;;8.73;56.95;102927.69;5035841;28;45340;-75
2022/01/20 16:07:38;;;;;;;;;3.00;2.00;;;;;8.64;57.05;102939.31;5036014;28;45529;-72
2022/01/20 16:10:04;;;;;;;;;1.00;1.00;;;;;8.63;57.24;102945.53;5035893;28;45394;-76
2022/01/20 16:12:30;;;;;;;;;1.75;1.00;;;;;8.49;57.61;102909.06;5041718;28;45454;-74
2022/01/20 16:14:55;;;;;;;;;1.25;1.25;;;;;8.49;57.60;102925.09;5038543;28;45438;-77
2022/01/20 16:17:21;;;;;;;;;2.00;1.00;;;;;8.50;57.60;102935.78;5035587;28;45352;-77
2022/01/20 16:19:47;;;;;;;;;3.00;2.00;;;;;8.43;57.28;102933.09;5035781;28;45524;-77
2022/01/20 16:22:12;;;;;;;;;1.50;1.50;;;;;8.54;56.96;102968.72;5017656;28;45424;-72
2022/01/20 16:24:37;;;;;;;;;1.75;1.75;;;;;8.48;56.78;102958.06;5035488;28;46105;-70
2022/01/20 16:27:03;;;;;;;;;0.25;0.25;;;;;8.47;55.82;102975.00;5036071;28;45346;-71
2022/01/20 16:29:29;;;;;;;;;3.50;1.00;;;;;8.40;55.84;102976.78;5035389;28;45476;-71
2022/01/20 16:31:54;;;;;;;;;2.00;1.00;;;;;8.39;56.43;102977.69;5035878;28;45495;-71
2022/01/20 16:34:19;;;;;;;;;3.50;1.00;;;;;8.35;56.28;102983.91;5036197;28;45450;-70
2022/01/20 16:36:45;;;;;;;;;3.25;1.00;;;;;8.26;56.64;102979.41;5036164;28;45533;-71
2022/01/20 16:39:11;;;;;;;;;1.00;1.00;;;;;8.27;57.03;102981.19;5035638;28;45324;-72
2022/01/20 16:41:36;;;;;;;;;2.00;1.00;;;;;8.31;57.42;102991.06;5035764;28;45545;-69
2022/01/20 16:44:03;;;;;;;;;3.00;1.25;;;;;8.28;57.53;102988.34;5035218;28;46026;-71
2022/01/20 16:46:29;;;;;;;;;3.50;2.25;;;;;8.34;56.77;102995.47;5034566;28;45693;-70
2022/01/20 16:48:55;;;;;;;;;1.25;1.00;;;;;8.31;57.17;103001.75;5035315;28;45557;-72
2022/01/20 16:51:21;;;;;;;;;3.25;1.00;;;;;8.26;56.90;102995.44;5035690;28;45514;-71
2022/01/20 16:53:46;;;;;;;;;1.00;1.00;;;;;8.27;56.59;102999.91;5035132;28;46261;-71
2022/01/20 16:56:13;;;;;;;;;2.00;2.00;;;;;8.26;57.05;103002.56;5034950;28;45300;-72
2022/01/20 16:58:40;;;;;;;;;2.00;1.00;;;;;8.23;56.56;103011.50;5035508;28;45548;-70
2022/01/20 17:01:06;;;;;;;;;4.50;1.00;;;;;8.23;57.39;103010.63;5035480;28;45408;-71
2022/01/20 17:03:32;;;;;;;;;2.00;1.25;;;;;8.24;57.00;103007.06;5034904;28;47116;-72
2022/01/20 17:05:59;;;;;;;;;1.00;1.00;;;;;8.20;56.85;103006.16;5037614;28;45340;-75
2022/01/20 17:08:25;;;;;;;;;5.75;1.00;;;;;8.27;57.18;103023.06;5019425;28;45473;-73
2022/01/20 17:10:51;;;;;;;;;1.00;1.00;;;;;8.25;56.99;103022.19;5035349;28;46302;-73